createdAt,value
2023-01-07T00:02:59.952Z,5.96
2023-01-07T00:06:07.514Z,5.98
2023-01-07T00:09:12.608Z,6.01
2023-01-07T00:12:14.185Z,6.04
2023-01-07T00:15:15.911Z,6.07
2023-01-07T00:18:17.697Z,6.10
2023-01-07T00:21:20.934Z,6.14
2023-01-07T00:24:22.579Z,6.16
2023-01-07T00:27:24.329Z,6.18
2023-01-07T00:30:25.874Z,6.22
2023-01-07T00:33:27.480Z,6.25
2023-01-07T00:36:30.167Z,6.27
2023-01-07T00:39:34.947Z,6.27
2023-01-07T00:42:36.505Z,6.28
2023-01-07T00:45:38.250Z,6.31
2023-01-07T00:48:39.823Z,6.33
2023-01-07T00:51:41.530Z,6.36
2023-01-07T00:54:43.392Z,6.38
2023-01-07T00:57:45.255Z,6.41
2023-01-07T01:00:47.088Z,6.45
2023-01-07T01:03:48.748Z,6.46
2023-01-07T01:06:50.374Z,6.48
2023-01-07T01:09:52.113Z,6.48
2023-01-07T01:12:53.749Z,6.50
2023-01-07T01:15:55.512Z,6.51
2023-01-07T01:18:57.154Z,6.50
2023-01-07T01:21:59.192Z,6.52
2023-01-07T01:25:00.707Z,6.51
2023-01-07T01:28:02.680Z,6.50
2023-01-07T01:31:04.687Z,6.47
2023-01-07T01:34:06.380Z,6.42
2023-01-07T01:37:08.104Z,6.37
2023-01-07T01:40:10.712Z,6.33
2023-01-07T01:43:35.749Z,6.34
2023-01-07T01:46:42.198Z,6.34
2023-01-07T01:49:50.207Z,6.31
2023-01-07T01:53:01.808Z,6.27
2023-01-07T01:56:09.435Z,6.21
2023-01-07T01:59:14.643Z,6.14
2023-01-07T02:02:21.369Z,6.07
2023-01-07T02:05:26.248Z,5.99
2023-01-07T02:08:28.295Z,5.95
2023-01-07T02:11:33.795Z,5.92
2023-01-07T02:14:47.611Z,5.88
2023-01-07T02:18:08.905Z,5.86
2023-01-07T02:21:32.520Z,5.80
2023-01-07T02:24:49.329Z,5.80
2023-01-07T02:28:26.431Z,5.83
2023-01-07T02:32:05.829Z,5.85
2023-01-07T02:35:07.436Z,5.87
2023-01-07T02:38:21.285Z,5.86
2023-01-07T02:41:31.900Z,5.81
2023-01-07T02:44:48.761Z,5.71
2023-01-07T02:47:54.574Z,5.65
2023-01-07T02:50:56.075Z,5.61
2023-01-07T02:53:57.583Z,5.54
2023-01-07T02:57:24.472Z,5.51
2023-01-07T03:00:49.425Z,5.48
2023-01-07T03:04:10.018Z,5.44
2023-01-07T03:07:24.863Z,5.42
2023-01-07T03:10:59.941Z,5.41
2023-01-07T03:14:13.809Z,5.41
2023-01-07T03:17:19.841Z,5.42
2023-01-07T03:20:24.643Z,5.42
2023-01-07T03:23:27.940Z,5.42
2023-01-07T03:26:36.513Z,5.42
2023-01-07T03:29:38.161Z,5.44
2023-01-07T03:32:41.779Z,5.45
2023-01-07T03:35:46.019Z,5.44
2023-01-07T03:38:48.516Z,5.42
2023-01-07T03:41:50.913Z,5.40
2023-01-07T03:44:52.586Z,5.37
2023-01-07T03:47:56.008Z,5.32
2023-01-07T03:50:57.662Z,5.30
2023-01-07T03:53:59.113Z,5.27
2023-01-07T03:57:00.692Z,5.27
2023-01-07T04:00:02.196Z,5.27
2023-01-07T04:03:04.052Z,5.23
2023-01-07T04:06:05.617Z,5.13
2023-01-07T04:09:07.265Z,5.06
2023-01-07T04:12:08.921Z,4.98
2023-01-07T04:15:11.083Z,4.90
2023-01-07T04:18:12.731Z,4.81
2023-01-07T04:21:14.233Z,4.65
2023-01-07T04:24:15.864Z,4.48
2023-01-07T04:27:17.626Z,4.38
2023-01-07T04:30:19.123Z,4.32
2023-01-07T04:33:20.923Z,4.27
2023-01-07T04:36:22.705Z,4.24
2023-01-07T04:39:24.197Z,4.22
2023-01-07T04:42:25.791Z,4.18
2023-01-07T04:45:27.545Z,4.08
2023-01-07T04:48:29.469Z,4.02
2023-01-07T04:51:31.150Z,3.97
2023-01-07T04:54:32.828Z,3.90
2023-01-07T04:57:34.496Z,3.72
2023-01-07T05:00:35.992Z,3.43
2023-01-07T05:03:38.017Z,3.34
2023-01-07T05:06:39.555Z,3.30
2023-01-07T05:09:41.181Z,3.26
2023-01-07T05:12:42.898Z,3.15
2023-01-07T05:15:44.863Z,3.11
2023-01-07T05:18:46.467Z,3.08
2023-01-07T05:21:48.045Z,3.05
2023-01-07T05:24:49.695Z,3.00
2023-01-07T05:27:51.389Z,2.92
2023-01-07T05:30:53.090Z,2.84
2023-01-07T05:33:54.671Z,2.75
2023-01-07T05:36:56.660Z,2.70
2023-01-07T05:39:58.277Z,2.71
2023-01-07T05:43:00.047Z,2.68
2023-01-07T05:46:01.684Z,2.73
2023-01-07T05:49:03.596Z,2.76
2023-01-07T05:52:05.241Z,2.81
2023-01-07T05:55:07.018Z,2.90
2023-01-07T05:58:08.754Z,2.91
2023-01-07T06:01:10.295Z,2.80
2023-01-07T06:04:12.021Z,2.70
2023-01-07T06:07:13.661Z,2.54
2023-01-07T06:10:15.303Z,2.38
2023-01-07T06:13:16.811Z,2.22
2023-01-07T06:16:18.471Z,2.12
2023-01-07T06:19:20.136Z,2.03
2023-01-07T06:22:21.582Z,1.86
2023-01-07T06:25:23.133Z,1.78
2023-01-07T06:28:24.796Z,1.81
2023-01-07T06:31:26.569Z,1.89
2023-01-07T06:34:28.044Z,1.99
2023-01-07T06:37:29.874Z,1.96
2023-01-07T06:40:31.787Z,2.10
2023-01-07T06:43:33.377Z,2.22
2023-01-07T06:46:34.912Z,2.25
2023-01-07T06:49:36.736Z,2.22
2023-01-07T06:52:38.383Z,2.18
2023-01-07T06:55:40.004Z,2.17
2023-01-07T06:58:41.653Z,2.25
2023-01-07T07:01:46.212Z,2.43
2023-01-07T07:04:48.409Z,2.62
2023-01-07T07:07:50.020Z,2.71
2023-01-07T07:10:51.683Z,2.68
2023-01-07T07:13:53.268Z,2.66
2023-01-07T07:16:54.801Z,2.78
2023-01-07T07:19:56.352Z,2.91
2023-01-07T07:22:57.878Z,2.97
2023-01-07T07:25:59.480Z,2.99
2023-01-07T07:29:01.100Z,3.04
2023-01-07T07:32:02.696Z,2.95
2023-01-07T07:35:04.716Z,2.88
2023-01-07T07:38:06.366Z,2.88
2023-01-07T07:41:07.845Z,2.92
2023-01-07T07:44:09.443Z,2.98
2023-01-07T07:47:13.449Z,3.04
2023-01-07T07:50:15.076Z,3.08
2023-01-07T07:53:16.578Z,3.04
2023-01-07T07:56:18.281Z,3.10
2023-01-07T07:59:19.834Z,3.25
2023-01-07T08:02:21.611Z,3.38
2023-01-07T08:05:23.606Z,3.43
2023-01-07T08:08:25.366Z,3.48
2023-01-07T08:11:26.813Z,3.53
2023-01-07T08:14:28.456Z,3.56
2023-01-07T08:17:30.061Z,3.57
2023-01-07T08:20:31.745Z,3.54
2023-01-07T08:23:33.373Z,3.56
2023-01-07T08:26:34.980Z,3.74
2023-01-07T08:29:36.736Z,3.95
2023-01-07T08:32:38.338Z,4.10
2023-01-07T08:35:40.267Z,4.10
2023-01-07T08:38:41.981Z,3.99
2023-01-07T08:41:43.445Z,3.95
2023-01-07T08:44:45.057Z,3.97
2023-01-07T08:47:46.815Z,4.04
2023-01-07T08:50:51.912Z,4.08
2023-01-07T08:53:54.787Z,4.15
2023-01-07T08:56:57.074Z,4.22
2023-01-07T08:59:58.580Z,4.37
2023-01-07T09:03:00.205Z,4.56
2023-01-07T09:06:01.821Z,4.73
2023-01-07T09:09:03.570Z,4.86
2023-01-07T09:12:05.952Z,4.97
2023-01-07T09:15:08.586Z,5.13
2023-01-07T09:18:10.291Z,5.40
2023-01-07T09:21:11.939Z,5.66
2023-01-07T09:24:22.181Z,5.90
2023-01-07T09:27:23.801Z,6.42
2023-01-07T09:30:26.021Z,7.08
2023-01-07T09:33:27.670Z,7.45
2023-01-07T09:36:29.391Z,7.44
2023-01-07T09:39:31.020Z,7.55
2023-01-07T09:43:05.046Z,7.91
2023-01-07T09:46:08.040Z,8.32
2023-01-07T09:49:15.280Z,8.82
2023-01-07T09:52:24.179Z,9.06
2023-01-07T09:55:36.195Z,9.19
2023-01-07T09:58:38.133Z,9.28
2023-01-07T10:01:51.969Z,9.34
2023-01-07T10:05:30.082Z,9.22
2023-01-07T10:08:42.801Z,9.09
2023-01-07T10:11:50.600Z,8.89
2023-01-07T10:15:21.389Z,8.73
2023-01-07T10:18:44.716Z,8.58
2023-01-07T10:21:57.725Z,8.43
2023-01-07T10:25:04.361Z,8.39
2023-01-07T10:28:11.922Z,8.42
2023-01-07T10:31:19.792Z,8.64
2023-01-07T10:34:36.149Z,8.76
2023-01-07T10:37:39.656Z,8.83
2023-01-07T10:40:51.888Z,8.94
2023-01-07T10:44:20.052Z,9.07
2023-01-07T10:47:34.080Z,9.23
2023-01-07T10:51:01.754Z,9.55
2023-01-07T10:54:22.833Z,9.49
2023-01-07T10:57:26.212Z,9.28
2023-01-07T11:00:28.059Z,9.06
2023-01-07T11:03:29.609Z,8.91
2023-01-07T11:06:48.941Z,8.79
2023-01-07T11:09:50.950Z,8.67
2023-01-07T11:12:56.667Z,8.71
2023-01-07T11:16:21.411Z,8.99
2023-01-07T11:19:41.821Z,8.68
2023-01-07T11:22:44.778Z,8.37
2023-01-07T11:25:47.405Z,8.36
2023-01-07T11:29:00.622Z,8.94
2023-01-07T11:32:02.253Z,8.66
2023-01-07T11:35:22.915Z,8.36
2023-01-07T11:38:33.445Z,8.06
2023-01-07T11:41:35.196Z,7.86
2023-01-07T11:44:36.861Z,7.71
2023-01-07T11:47:40.295Z,7.57
2023-01-07T11:50:43.970Z,7.47
2023-01-07T11:53:59.041Z,7.38
2023-01-07T11:57:17.701Z,7.55
2023-01-07T12:00:20.885Z,7.61
2023-01-07T12:03:22.560Z,7.57
2023-01-07T12:06:27.564Z,7.65
2023-01-07T12:09:34.687Z,7.67
2023-01-07T12:12:37.220Z,7.82
2023-01-07T12:15:52.189Z,7.87
2023-01-07T12:19:09.352Z,7.72
2023-01-07T12:22:41.279Z,7.66
2023-01-07T12:25:58.823Z,7.74
2023-01-07T12:29:16.929Z,7.91
2023-01-07T12:32:41.273Z,8.05
2023-01-07T12:35:44.448Z,8.11
2023-01-07T12:38:50.191Z,8.16
2023-01-07T12:42:13.135Z,8.20
2023-01-07T12:45:25.688Z,8.15
2023-01-07T12:48:53.290Z,8.03
2023-01-07T12:52:05.069Z,7.84
2023-01-07T12:55:44.737Z,7.64
2023-01-07T12:58:49.393Z,7.49
2023-01-07T13:01:57.713Z,7.45
2023-01-07T13:05:11.394Z,7.30
2023-01-07T13:08:37.946Z,7.05
2023-01-07T13:11:46.418Z,6.97
2023-01-07T13:14:51.959Z,7.03
2023-01-07T13:18:02.528Z,7.09
2023-01-07T13:21:08.077Z,7.17
2023-01-07T13:24:56.559Z,7.24
2023-01-07T13:28:10.821Z,7.27
2023-01-07T13:31:46.539Z,7.30
2023-01-07T13:35:03.409Z,7.28
2023-01-07T13:38:12.109Z,7.34
2023-01-07T13:41:45.678Z,7.31
2023-01-07T13:45:21.669Z,7.30
2023-01-07T13:48:26.341Z,7.28
2023-01-07T13:51:30.933Z,7.25
2023-01-07T13:54:53.504Z,7.29
2023-01-07T13:57:55.184Z,7.21
2023-01-07T14:01:03.166Z,7.18
2023-01-07T14:04:04.830Z,7.22
2023-01-07T14:07:07.605Z,7.31
2023-01-07T14:10:29.944Z,7.29
2023-01-07T14:13:52.863Z,7.14
2023-01-07T14:17:13.392Z,7.13
2023-01-07T14:20:46.091Z,7.16
2023-01-07T14:24:16.716Z,7.02
2023-01-07T14:27:29.097Z,6.87
2023-01-07T14:30:45.784Z,6.74
2023-01-07T14:33:50.702Z,6.64
2023-01-07T14:37:01.536Z,6.62
2023-01-07T14:40:25.981Z,6.61
2023-01-07T14:43:42.974Z,6.52
2023-01-07T14:46:46.431Z,6.30
2023-01-07T14:49:51.002Z,6.17
2023-01-07T14:53:16.453Z,6.13
2023-01-07T14:56:23.745Z,6.02
2023-01-07T14:59:53.497Z,5.81
2023-01-07T15:03:31.084Z,5.48
2023-01-07T15:06:38.954Z,5.29
2023-01-07T15:09:52.338Z,5.38
2023-01-07T15:12:55.697Z,5.37
2023-01-07T15:15:57.478Z,5.23
2023-01-07T15:18:59.157Z,5.15
2023-01-07T15:22:20.892Z,5.07
2023-01-07T15:25:46.520Z,4.94
2023-01-07T15:28:51.325Z,4.68
2023-01-07T15:32:08.421Z,4.52
2023-01-07T15:35:40.168Z,4.50
2023-01-07T15:38:50.763Z,4.39
2023-01-07T15:41:54.373Z,4.28
2023-01-07T15:44:57.468Z,4.18
2023-01-07T15:48:07.909Z,4.16
2023-01-07T15:51:15.667Z,4.20
2023-01-07T15:54:35.012Z,4.14
2023-01-07T15:57:36.580Z,4.08
2023-01-07T16:00:38.205Z,4.00
2023-01-07T16:03:41.970Z,3.91
2023-01-07T16:06:43.677Z,3.75
2023-01-07T16:09:45.164Z,3.50
2023-01-07T16:12:52.372Z,3.31
2023-01-07T16:15:59.294Z,3.22
2023-01-07T16:19:02.593Z,3.14
2023-01-07T16:22:04.244Z,3.12
2023-01-07T16:25:06.813Z,2.91
2023-01-07T16:28:16.239Z,2.60
2023-01-07T16:31:21.568Z,2.54
2023-01-07T16:34:26.322Z,2.70
2023-01-07T16:37:28.614Z,2.63
2023-01-07T16:40:34.557Z,2.58
2023-01-07T16:43:38.997Z,2.51
2023-01-07T16:46:40.562Z,2.54
2023-01-07T16:49:42.240Z,2.63
2023-01-07T16:52:55.315Z,2.65
2023-01-07T16:56:15.403Z,2.56
2023-01-07T16:59:17.263Z,2.55
2023-01-07T17:02:28.241Z,2.47
2023-01-07T17:05:31.141Z,2.39
2023-01-07T17:08:33.959Z,2.33
2023-01-07T17:11:38.542Z,2.23
2023-01-07T17:14:49.997Z,2.19
2023-01-07T17:17:51.617Z,2.13
2023-01-07T17:20:54.508Z,1.99
2023-01-07T17:23:56.266Z,1.79
2023-01-07T17:26:58.416Z,1.53
2023-01-07T17:30:04.914Z,1.34
2023-01-07T17:33:06.596Z,1.19
2023-01-07T17:36:26.714Z,1.09
2023-01-07T17:39:28.352Z,1.04
2023-01-07T17:42:32.993Z,1.02
2023-01-07T17:45:35.264Z,1.07
2023-01-07T17:48:37.060Z,1.14
2023-01-07T17:51:41.031Z,1.19
2023-01-07T17:54:44.210Z,1.22
2023-01-07T17:57:45.972Z,1.20
2023-01-07T18:00:47.536Z,1.16
2023-01-07T18:03:50.423Z,1.15
2023-01-07T18:06:52.005Z,1.12
2023-01-07T18:09:53.600Z,1.05
2023-01-07T18:12:55.151Z,1.06
2023-01-07T18:15:57.701Z,1.00
2023-01-07T18:18:59.268Z,0.96
2023-01-07T18:22:00.854Z,0.91
2023-01-07T18:25:02.467Z,0.83
2023-01-07T18:28:04.224Z,0.82
2023-01-07T18:31:05.716Z,0.80
2023-01-07T18:34:08.766Z,0.79
2023-01-07T18:37:10.428Z,0.77
2023-01-07T18:40:11.967Z,0.76
2023-01-07T18:43:14.968Z,0.74
2023-01-07T18:46:17.801Z,0.69
2023-01-07T18:49:19.507Z,0.63
2023-01-07T18:52:21.103Z,0.55
2023-01-07T18:55:22.708Z,0.49
2023-01-07T18:58:24.524Z,0.44
2023-01-07T19:01:26.200Z,0.38
2023-01-07T19:04:28.051Z,0.28
2023-01-07T19:07:29.868Z,0.17
2023-01-07T19:10:31.688Z,0.11
2023-01-07T19:13:33.271Z,-0.01
2023-01-07T19:16:35.945Z,-0.14
2023-01-07T19:19:48.029Z,-0.21
2023-01-07T19:22:50.127Z,-0.29
2023-01-07T19:26:03.220Z,-0.38
2023-01-07T19:29:04.961Z,-0.41
2023-01-07T19:32:06.451Z,-0.45
2023-01-07T19:35:08.708Z,-0.49
2023-01-07T19:38:10.953Z,-0.46
2023-01-07T19:41:14.881Z,-0.40
2023-01-07T19:44:16.761Z,-0.38
2023-01-07T19:47:18.486Z,-0.39
2023-01-07T19:50:20.023Z,-0.38
2023-01-07T19:53:21.638Z,-0.43
2023-01-07T19:56:23.210Z,-0.52
2023-01-07T19:59:25.808Z,-0.58
2023-01-07T20:02:27.573Z,-0.63
2023-01-07T20:05:29.292Z,-0.80
2023-01-07T20:08:31.254Z,-0.98
2023-01-07T20:11:32.816Z,-1.06
2023-01-07T20:14:34.497Z,-1.05
2023-01-07T20:17:36.105Z,-1.00
2023-01-07T20:20:37.713Z,-0.99
2023-01-07T20:23:40.669Z,-1.03
2023-01-07T20:26:42.212Z,-1.08
2023-01-07T20:29:44.018Z,-1.06
2023-01-07T20:32:45.621Z,-1.02
2023-01-07T20:35:47.123Z,-1.01
2023-01-07T20:38:48.771Z,-0.93
2023-01-07T20:41:50.370Z,-0.93
2023-01-07T20:44:51.928Z,-0.97
2023-01-07T20:47:53.528Z,-0.96
2023-01-07T20:50:55.293Z,-1.02
2023-01-07T20:53:57.815Z,-1.08
2023-01-07T20:56:59.349Z,-1.10
2023-01-07T21:00:01.000Z,-1.14
2023-01-07T21:03:02.792Z,-1.20
2023-01-07T21:06:04.942Z,-1.26
2023-01-07T21:09:06.656Z,-1.34
2023-01-07T21:12:08.284Z,-1.43
2023-01-07T21:15:11.549Z,-1.54
2023-01-07T21:18:13.286Z,-1.63
2023-01-07T21:21:19.255Z,-1.67
2023-01-07T21:24:21.052Z,-1.69
2023-01-07T21:27:22.567Z,-1.70
2023-01-07T21:30:24.070Z,-1.68
2023-01-07T21:33:25.599Z,-1.57
2023-01-07T21:36:28.240Z,-1.39
2023-01-07T21:39:29.849Z,-1.36
2023-01-07T21:42:31.488Z,-1.67
2023-01-07T21:45:33.069Z,-1.92
2023-01-07T21:48:36.780Z,-1.88
2023-01-07T21:51:42.656Z,-1.82
2023-01-07T21:54:44.314Z,-1.79
2023-01-07T21:57:46.087Z,-1.76
2023-01-07T22:00:53.934Z,-1.73
2023-01-07T22:03:56.899Z,-1.70
2023-01-07T22:06:58.605Z,-1.69
2023-01-07T22:10:00.184Z,-1.69
2023-01-07T22:13:01.772Z,-1.68
2023-01-07T22:16:04.844Z,-1.65
2023-01-07T22:19:06.463Z,-1.63
2023-01-07T22:22:08.146Z,-1.63
2023-01-07T22:25:09.859Z,-1.63
2023-01-07T22:28:11.579Z,-1.63
2023-01-07T22:31:24.207Z,-1.64
2023-01-07T22:34:26.318Z,-1.68
2023-01-07T22:37:27.889Z,-1.70
2023-01-07T22:40:30.478Z,-1.71
2023-01-07T22:43:32.347Z,-1.75
2023-01-07T22:46:34.140Z,-1.72
2023-01-07T22:49:35.768Z,-1.67
2023-01-07T22:52:38.263Z,-1.66
2023-01-07T22:55:40.397Z,-1.67
2023-01-07T22:58:42.018Z,-1.74
2023-01-07T23:01:43.695Z,-1.83
2023-01-07T23:04:45.272Z,-1.85
2023-01-07T23:07:46.879Z,-1.90
2023-01-07T23:10:48.803Z,-1.94
2023-01-07T23:13:50.449Z,-1.96
2023-01-07T23:16:52.539Z,-1.99
2023-01-07T23:19:54.216Z,-2.02
2023-01-07T23:22:55.877Z,-2.04
2023-01-07T23:25:57.442Z,-2.08
2023-01-07T23:28:59.247Z,-2.01
2023-01-07T23:32:01.036Z,-1.76
2023-01-07T23:35:02.573Z,-1.47
2023-01-07T23:38:04.336Z,-1.30
2023-01-07T23:41:07.055Z,-1.17
2023-01-07T23:44:08.640Z,-1.24
2023-01-07T23:47:10.193Z,-1.58
2023-01-07T23:50:12.564Z,-1.64
2023-01-07T23:53:14.124Z,-1.57
2023-01-07T23:56:18.996Z,-1.59
2023-01-07T23:59:20.621Z,-1.61
